sensor_id;sensor_type;location;lat;lon;timestamp;P1;durP1;ratioP1;P2;durP2;ratioP2
20910;SDS011;10615;42.702;23.314;2023-03-25T00:00:42;61.28;;;28.90;;
20910;SDS011;10615;42.702;23.314;2023-03-25T00:01:43;58.25;;;27.55;;
20910;SDS011;10615;42.702;23.314;2023-03-25T00:02:45;58.72;;;27.85;;
20910;SDS011;10615;42.702;23.314;2023-03-25T00:03:48;56.28;;;28.15;;
20910;SDS011;10615;42.702;23.314;2023-03-25T00:04:52;51.63;;;27.67;;
20910;SDS011;10615;42.702;23.314;2023-03-25T00:05:53;47.45;;;25.02;;
20910;SDS011;10615;42.702;23.314;2023-03-25T00:06:55;46.25;;;22.40;;
20910;SDS011;10615;42.702;23.314;2023-03-25T00:07:56;40.60;;;22.95;;
20910;SDS011;10615;42.702;23.314;2023-03-25T00:08:56;39.42;;;21.60;;
20910;SDS011;10615;42.702;23.314;2023-03-25T00:09:57;36.70;;;22.58;;
20910;SDS011;10615;42.702;23.314;2023-03-25T00:10:58;38.15;;;21.35;;
20910;SDS011;10615;42.702;23.314;2023-03-25T00:12:00;36.20;;;21.85;;
20910;SDS011;10615;42.702;23.314;2023-03-25T00:13:01;34.35;;;20.60;;
20910;SDS011;10615;42.702;23.314;2023-03-25T00:14:04;35.65;;;21.23;;
20910;SDS011;10615;42.702;23.314;2023-03-25T00:15:06;33.83;;;20.58;;
20910;SDS011;10615;42.702;23.314;2023-03-25T00:16:08;38.88;;;21.70;;
20910;SDS011;10615;42.702;23.314;2023-03-25T00:17:09;39.40;;;23.23;;
20910;SDS011;10615;42.702;23.314;2023-03-25T00:18:10;39.28;;;22.95;;
20910;SDS011;10615;42.702;23.314;2023-03-25T00:19:11;34.88;;;21.02;;
20910;SDS011;10615;42.702;23.314;2023-03-25T00:20:12;30.15;;;19.60;;
20910;SDS011;10615;42.702;23.314;2023-03-25T00:21:13;32.15;;;20.70;;
20910;SDS011;10615;42.702;23.314;2023-03-25T00:22:14;37.15;;;22.90;;
20910;SDS011;10615;42.702;23.314;2023-03-25T00:23:16;36.95;;;22.05;;
20910;SDS011;10615;42.702;23.314;2023-03-25T00:24:17;36.30;;;20.70;;
20910;SDS011;10615;42.702;23.314;2023-03-25T00:25:19;32.00;;;20.65;;
20910;SDS011;10615;42.702;23.314;2023-03-25T00:26:20;33.63;;;20.33;;
20910;SDS011;10615;42.702;23.314;2023-03-25T00:27:21;40.30;;;21.98;;
20910;SDS011;10615;42.702;23.314;2023-03-25T00:28:22;35.78;;;21.48;;
20910;SDS011;10615;42.702;23.314;2023-03-25T00:29:24;32.33;;;21.02;;
20910;SDS011;10615;42.702;23.314;2023-03-25T00:30:25;36.28;;;20.95;;
20910;SDS011;10615;42.702;23.314;2023-03-25T00:31:26;34.65;;;21.75;;
20910;SDS011;10615;42.702;23.314;2023-03-25T00:32:26;33.55;;;20.50;;
20910;SDS011;10615;42.702;23.314;2023-03-25T00:33:28;33.20;;;20.55;;
20910;SDS011;10615;42.702;23.314;2023-03-25T00:34:30;31.17;;;20.38;;
20910;SDS011;10615;42.702;23.314;2023-03-25T00:35:34;31.17;;;20.00;;
20910;SDS011;10615;42.702;23.314;2023-03-25T00:36:36;30.75;;;18.75;;
20910;SDS011;10615;42.702;23.314;2023-03-25T00:37:37;28.55;;;19.42;;
20910;SDS011;10615;42.702;23.314;2023-03-25T00:38:37;32.97;;;20.15;;
20910;SDS011;10615;42.702;23.314;2023-03-25T00:39:40;33.40;;;19.00;;
20910;SDS011;10615;42.702;23.314;2023-03-25T00:40:41;29.35;;;18.63;;
20910;SDS011;10615;42.702;23.314;2023-03-25T00:41:42;31.35;;;19.23;;
20910;SDS011;10615;42.702;23.314;2023-03-25T00:42:43;28.10;;;18.08;;
20910;SDS011;10615;42.702;23.314;2023-03-25T00:43:49;27.08;;;17.98;;
20910;SDS011;10615;42.702;23.314;2023-03-25T00:44:52;26.25;;;16.88;;
20910;SDS011;10615;42.702;23.314;2023-03-25T00:45:56;28.70;;;17.73;;
20910;SDS011;10615;42.702;23.314;2023-03-25T00:46:57;26.20;;;16.42;;
20910;SDS011;10615;42.702;23.314;2023-03-25T00:47:57;24.83;;;16.67;;
20910;SDS011;10615;42.702;23.314;2023-03-25T00:48:59;25.15;;;16.63;;
20910;SDS011;10615;42.702;23.314;2023-03-25T00:50:00;27.00;;;16.38;;
20910;SDS011;10615;42.702;23.314;2023-03-25T00:51:02;26.65;;;16.05;;
20910;SDS011;10615;42.702;23.314;2023-03-25T00:52:07;21.67;;;15.68;;
20910;SDS011;10615;42.702;23.314;2023-03-25T00:53:08;26.40;;;16.50;;
20910;SDS011;10615;42.702;23.314;2023-03-25T00:54:08;26.33;;;17.35;;
20910;SDS011;10615;42.702;23.314;2023-03-25T00:55:10;26.30;;;16.40;;
20910;SDS011;10615;42.702;23.314;2023-03-25T00:56:11;24.48;;;16.00;;
20910;SDS011;10615;42.702;23.314;2023-03-25T00:57:12;23.45;;;14.95;;
20910;SDS011;10615;42.702;23.314;2023-03-25T00:58:12;23.80;;;16.42;;
20910;SDS011;10615;42.702;23.314;2023-03-25T00:59:13;26.92;;;16.42;;
20910;SDS011;10615;42.702;23.314;2023-03-25T01:00:15;25.27;;;16.63;;
20910;SDS011;10615;42.702;23.314;2023-03-25T01:01:24;21.13;;;15.50;;
20910;SDS011;10615;42.702;23.314;2023-03-25T01:02:26;21.98;;;15.70;;
20910;SDS011;10615;42.702;23.314;2023-03-25T01:03:27;24.58;;;16.23;;
20910;SDS011;10615;42.702;23.314;2023-03-25T01:04:28;25.02;;;15.77;;
20910;SDS011;10615;42.702;23.314;2023-03-25T01:05:29;20.27;;;15.43;;
20910;SDS011;10615;42.702;23.314;2023-03-25T01:06:34;23.48;;;15.73;;
20910;SDS011;10615;42.702;23.314;2023-03-25T01:07:35;20.20;;;15.00;;
20910;SDS011;10615;42.702;23.314;2023-03-25T01:08:37;22.95;;;15.68;;
20910;SDS011;10615;42.702;23.314;2023-03-25T01:09:40;21.52;;;15.00;;
20910;SDS011;10615;42.702;23.314;2023-03-25T01:10:41;20.65;;;14.88;;
20910;SDS011;10615;42.702;23.314;2023-03-25T01:11:42;20.75;;;15.02;;
20910;SDS011;10615;42.702;23.314;2023-03-25T01:12:44;19.33;;;14.60;;
20910;SDS011;10615;42.702;23.314;2023-03-25T01:13:45;17.13;;;13.90;;
20910;SDS011;10615;42.702;23.314;2023-03-25T01:14:46;16.58;;;14.00;;
20910;SDS011;10615;42.702;23.314;2023-03-25T01:15:46;20.98;;;14.45;;
20910;SDS011;10615;42.702;23.314;2023-03-25T01:16:47;19.38;;;14.10;;
20910;SDS011;10615;42.702;23.314;2023-03-25T01:17:48;20.40;;;15.10;;
20910;SDS011;10615;42.702;23.314;2023-03-25T01:18:48;23.48;;;16.13;;
20910;SDS011;10615;42.702;23.314;2023-03-25T01:19:49;27.25;;;16.13;;
20910;SDS011;10615;42.702;23.314;2023-03-25T01:20:50;25.30;;;15.30;;
20910;SDS011;10615;42.702;23.314;2023-03-25T01:21:51;21.88;;;15.63;;
20910;SDS011;10615;42.702;23.314;2023-03-25T01:22:51;24.08;;;15.73;;
20910;SDS011;10615;42.702;23.314;2023-03-25T01:23:52;24.13;;;16.30;;
20910;SDS011;10615;42.702;23.314;2023-03-25T01:24:52;21.13;;;15.30;;
20910;SDS011;10615;42.702;23.314;2023-03-25T01:25:53;23.13;;;16.77;;
20910;SDS011;10615;42.702;23.314;2023-03-25T01:26:54;23.80;;;16.00;;
20910;SDS011;10615;42.702;23.314;2023-03-25T01:27:55;23.73;;;15.05;;
20910;SDS011;10615;42.702;23.314;2023-03-25T01:28:55;22.02;;;15.32;;
20910;SDS011;10615;42.702;23.314;2023-03-25T01:29:56;23.13;;;16.42;;
20910;SDS011;10615;42.702;23.314;2023-03-25T01:31:04;23.85;;;15.80;;
20910;SDS011;10615;42.702;23.314;2023-03-25T01:32:06;24.45;;;16.80;;
20910;SDS011;10615;42.702;23.314;2023-03-25T01:33:07;22.70;;;15.90;;
20910;SDS011;10615;42.702;23.314;2023-03-25T01:34:08;24.02;;;16.35;;
20910;SDS011;10615;42.702;23.314;2023-03-25T01:35:09;23.23;;;16.35;;
20910;SDS011;10615;42.702;23.314;2023-03-25T01:36:11;24.58;;;16.73;;
20910;SDS011;10615;42.702;23.314;2023-03-25T01:37:11;26.15;;;15.75;;
20910;SDS011;10615;42.702;23.314;2023-03-25T01:38:12;21.33;;;16.08;;
20910;SDS011;10615;42.702;23.314;2023-03-25T01:39:13;20.65;;;15.88;;
20910;SDS011;10615;42.702;23.314;2023-03-25T01:40:17;20.48;;;15.85;;
20910;SDS011;10615;42.702;23.314;2023-03-25T01:41:19;25.88;;;15.57;;
20910;SDS011;10615;42.702;23.314;2023-03-25T01:42:20;24.83;;;17.08;;
20910;SDS011;10615;42.702;23.314;2023-03-25T01:43:21;22.92;;;16.60;;
20910;SDS011;10615;42.702;23.314;2023-03-25T01:45:29;24.13;;;17.13;;
20910;SDS011;10615;42.702;23.314;2023-03-25T01:46:34;24.13;;;16.90;;
20910;SDS011;10615;42.702;23.314;2023-03-25T01:47:38;22.77;;;16.38;;
20910;SDS011;10615;42.702;23.314;2023-03-25T01:48:40;24.60;;;17.35;;
20910;SDS011;10615;42.702;23.314;2023-03-25T01:49:43;25.90;;;16.50;;
20910;SDS011;10615;42.702;23.314;2023-03-25T01:50:51;25.58;;;16.92;;
20910;SDS011;10615;42.702;23.314;2023-03-25T01:51:56;22.17;;;15.27;;
20910;SDS011;10615;42.702;23.314;2023-03-25T01:53:02;21.38;;;16.15;;
20910;SDS011;10615;42.702;23.314;2023-03-25T01:54:05;23.05;;;15.80;;
20910;SDS011;10615;42.702;23.314;2023-03-25T01:55:06;20.60;;;15.48;;
20910;SDS011;10615;42.702;23.314;2023-03-25T01:56:08;23.92;;;15.75;;
20910;SDS011;10615;42.702;23.314;2023-03-25T01:57:13;23.48;;;16.10;;
20910;SDS011;10615;42.702;23.314;2023-03-25T01:58:17;23.52;;;16.13;;
20910;SDS011;10615;42.702;23.314;2023-03-25T01:59:21;21.02;;;15.82;;
20910;SDS011;10615;42.702;23.314;2023-03-25T02:00:25;22.20;;;16.00;;
20910;SDS011;10615;42.702;23.314;2023-03-25T02:01:26;21.73;;;15.10;;
20910;SDS011;10615;42.702;23.314;2023-03-25T02:02:27;20.10;;;15.77;;
20910;SDS011;10615;42.702;23.314;2023-03-25T02:03:35;24.35;;;16.17;;
20910;SDS011;10615;42.702;23.314;2023-03-25T02:04:42;20.15;;;15.07;;
20910;SDS011;10615;42.702;23.314;2023-03-25T02:07:05;20.52;;;14.70;;
20910;SDS011;10615;42.702;23.314;2023-03-25T02:08:10;18.70;;;14.45;;
20910;SDS011;10615;42.702;23.314;2023-03-25T02:09:15;20.50;;;15.70;;
20910;SDS011;10615;42.702;23.314;2023-03-25T02:10:18;20.52;;;15.55;;
20910;SDS011;10615;42.702;23.314;2023-03-25T02:11:19;21.58;;;15.10;;
20910;SDS011;10615;42.702;23.314;2023-03-25T02:12:20;19.95;;;14.25;;
20910;SDS011;10615;42.702;23.314;2023-03-25T02:13:20;18.00;;;14.23;;
20910;SDS011;10615;42.702;23.314;2023-03-25T02:14:22;21.25;;;14.45;;
20910;SDS011;10615;42.702;23.314;2023-03-25T02:15:27;21.42;;;14.77;;
20910;SDS011;10615;42.702;23.314;2023-03-25T02:18:10;20.38;;;14.18;;
20910;SDS011;10615;42.702;23.314;2023-03-25T02:19:25;18.58;;;14.57;;
20910;SDS011;10615;42.702;23.314;2023-03-25T02:28:32;18.17;;;14.27;;
20910;SDS011;10615;42.702;23.314;2023-03-25T02:30:18;18.27;;;13.07;;
20910;SDS011;10615;42.702;23.314;2023-03-25T02:33:09;17.95;;;13.60;;
20910;SDS011;10615;42.702;23.314;2023-03-25T02:34:36;19.08;;;14.38;;
20910;SDS011;10615;42.702;23.314;2023-03-25T02:35:49;23.23;;;14.25;;
20910;SDS011;10615;42.702;23.314;2023-03-25T02:37:21;19.50;;;14.25;;
20910;SDS011;10615;42.702;23.314;2023-03-25T02:39:56;20.05;;;14.88;;
20910;SDS011;10615;42.702;23.314;2023-03-25T02:42:19;17.92;;;13.98;;
20910;SDS011;10615;42.702;23.314;2023-03-25T02:43:24;25.10;;;14.65;;
20910;SDS011;10615;42.702;23.314;2023-03-25T02:45:01;20.38;;;14.27;;
20910;SDS011;10615;42.702;23.314;2023-03-25T02:46:12;19.92;;;14.95;;
20910;SDS011;10615;42.702;23.314;2023-03-25T02:47:16;18.80;;;14.43;;
20910;SDS011;10615;42.702;23.314;2023-03-25T02:48:24;25.48;;;15.27;;
20910;SDS011;10615;42.702;23.314;2023-03-25T02:49:54;21.58;;;15.02;;
20910;SDS011;10615;42.702;23.314;2023-03-25T02:50:58;20.05;;;13.65;;
20910;SDS011;10615;42.702;23.314;2023-03-25T02:52:10;22.75;;;14.60;;
20910;SDS011;10615;42.702;23.314;2023-03-25T02:53:21;21.75;;;15.63;;
20910;SDS011;10615;42.702;23.314;2023-03-25T02:54:29;20.92;;;15.52;;
20910;SDS011;10615;42.702;23.314;2023-03-25T02:55:32;18.83;;;14.80;;
20910;SDS011;10615;42.702;23.314;2023-03-25T02:56:34;21.33;;;14.82;;
20910;SDS011;10615;42.702;23.314;2023-03-25T02:57:37;26.02;;;15.25;;
20910;SDS011;10615;42.702;23.314;2023-03-25T02:58:41;20.55;;;14.65;;
20910;SDS011;10615;42.702;23.314;2023-03-25T02:59:45;21.58;;;14.18;;
20910;SDS011;10615;42.702;23.314;2023-03-25T03:00:48;26.02;;;15.13;;
20910;SDS011;10615;42.702;23.314;2023-03-25T03:01:53;20.20;;;15.50;;
20910;SDS011;10615;42.702;23.314;2023-03-25T03:02:58;22.63;;;15.02;;
20910;SDS011;10615;42.702;23.314;2023-03-25T03:04:00;23.42;;;14.55;;
20910;SDS011;10615;42.702;23.314;2023-03-25T03:05:01;17.60;;;14.80;;
20910;SDS011;10615;42.702;23.314;2023-03-25T03:06:02;23.20;;;14.27;;
20910;SDS011;10615;42.702;23.314;2023-03-25T03:07:05;26.52;;;15.13;;
20910;SDS011;10615;42.702;23.314;2023-03-25T03:09:27;20.77;;;15.32;;
20910;SDS011;10615;42.702;23.314;2023-03-25T03:13:06;20.20;;;14.85;;
20910;SDS011;10615;42.702;23.314;2023-03-25T03:15:42;23.88;;;15.48;;
20910;SDS011;10615;42.702;23.314;2023-03-25T03:18:17;23.80;;;15.77;;
20910;SDS011;10615;42.702;23.314;2023-03-25T03:21:12;24.58;;;15.93;;
20910;SDS011;10615;42.702;23.314;2023-03-25T03:23:42;20.05;;;15.10;;
20910;SDS011;10615;42.702;23.314;2023-03-25T03:24:49;22.73;;;15.70;;
20910;SDS011;10615;42.702;23.314;2023-03-25T03:26:39;25.05;;;16.52;;
20910;SDS011;10615;42.702;23.314;2023-03-25T03:29:49;22.83;;;15.98;;
20910;SDS011;10615;42.702;23.314;2023-03-25T03:31:02;22.10;;;15.65;;
20910;SDS011;10615;42.702;23.314;2023-03-25T03:32:39;23.88;;;16.52;;
20910;SDS011;10615;42.702;23.314;2023-03-25T03:33:46;25.70;;;16.30;;
20910;SDS011;10615;42.702;23.314;2023-03-25T03:34:53;24.92;;;16.98;;
20910;SDS011;10615;42.702;23.314;2023-03-25T03:36:02;27.13;;;16.88;;
20910;SDS011;10615;42.702;23.314;2023-03-25T03:37:10;29.77;;;16.65;;
20910;SDS011;10615;42.702;23.314;2023-03-25T03:38:22;22.90;;;17.30;;
20910;SDS011;10615;42.702;23.314;2023-03-25T03:39:32;26.38;;;17.75;;
20910;SDS011;10615;42.702;23.314;2023-03-25T03:40:35;26.02;;;17.83;;
20910;SDS011;10615;42.702;23.314;2023-03-25T03:41:39;29.98;;;17.73;;
20910;SDS011;10615;42.702;23.314;2023-03-25T03:42:46;27.48;;;17.10;;
20910;SDS011;10615;42.702;23.314;2023-03-25T03:43:56;25.25;;;16.75;;
20910;SDS011;10615;42.702;23.314;2023-03-25T03:45:09;27.23;;;17.05;;
20910;SDS011;10615;42.702;23.314;2023-03-25T03:46:26;24.98;;;16.60;;
20910;SDS011;10615;42.702;23.314;2023-03-25T03:47:30;26.67;;;18.10;;
20910;SDS011;10615;42.702;23.314;2023-03-25T03:48:37;22.45;;;16.15;;
20910;SDS011;10615;42.702;23.314;2023-03-25T03:49:46;28.83;;;16.58;;
20910;SDS011;10615;42.702;23.314;2023-03-25T03:51:01;23.23;;;16.90;;
20910;SDS011;10615;42.702;23.314;2023-03-25T03:52:19;28.65;;;17.00;;
20910;SDS011;10615;42.702;23.314;2023-03-25T03:55:01;22.77;;;15.75;;
20910;SDS011;10615;42.702;23.314;2023-03-25T03:58:05;26.15;;;15.88;;
20910;SDS011;10615;42.702;23.314;2023-03-25T03:59:56;27.63;;;17.55;;
20910;SDS011;10615;42.702;23.314;2023-03-25T04:00:53;21.77;;;17.10;;
20910;SDS011;10615;42.702;23.314;2023-03-25T04:02:03;21.67;;;16.08;;
20910;SDS011;10615;42.702;23.314;2023-03-25T04:03:13;21.98;;;16.73;;
20910;SDS011;10615;42.702;23.314;2023-03-25T04:04:37;25.33;;;16.48;;
20910;SDS011;10615;42.702;23.314;2023-03-25T04:05:42;28.88;;;16.88;;
20910;SDS011;10615;42.702;23.314;2023-03-25T04:08:41;24.27;;;17.08;;
20910;SDS011;10615;42.702;23.314;2023-03-25T04:09:56;26.17;;;17.17;;
20910;SDS011;10615;42.702;23.314;2023-03-25T04:11:15;29.83;;;17.90;;
20910;SDS011;10615;42.702;23.314;2023-03-25T04:12:21;23.65;;;16.77;;
20910;SDS011;10615;42.702;23.314;2023-03-25T04:13:27;30.10;;;16.10;;
20910;SDS011;10615;42.702;23.314;2023-03-25T04:14:36;28.33;;;16.85;;
20910;SDS011;10615;42.702;23.314;2023-03-25T04:15:37;24.25;;;16.23;;
20910;SDS011;10615;42.702;23.314;2023-03-25T04:16:38;23.42;;;15.98;;
20910;SDS011;10615;42.702;23.314;2023-03-25T04:17:39;22.60;;;15.68;;
20910;SDS011;10615;42.702;23.314;2023-03-25T04:18:41;25.42;;;16.10;;
20910;SDS011;10615;42.702;23.314;2023-03-25T04:19:46;25.85;;;15.85;;
20910;SDS011;10615;42.702;23.314;2023-03-25T04:20:47;23.52;;;16.48;;
20910;SDS011;10615;42.702;23.314;2023-03-25T04:21:48;27.08;;;16.52;;
20910;SDS011;10615;42.702;23.314;2023-03-25T04:22:49;31.67;;;16.77;;
20910;SDS011;10615;42.702;23.314;2023-03-25T04:23:51;25.92;;;16.85;;
20910;SDS011;10615;42.702;23.314;2023-03-25T04:24:52;29.08;;;16.83;;
20910;SDS011;10615;42.702;23.314;2023-03-25T04:25:54;23.38;;;16.65;;
20910;SDS011;10615;42.702;23.314;2023-03-25T04:26:59;23.40;;;16.48;;
20910;SDS011;10615;42.702;23.314;2023-03-25T04:28:03;26.50;;;16.45;;
20910;SDS011;10615;42.702;23.314;2023-03-25T04:29:04;21.00;;;15.48;;
20910;SDS011;10615;42.702;23.314;2023-03-25T04:30:06;24.75;;;16.08;;
20910;SDS011;10615;42.702;23.314;2023-03-25T04:31:10;23.25;;;15.50;;
20910;SDS011;10615;42.702;23.314;2023-03-25T04:32:14;24.75;;;16.23;;
20910;SDS011;10615;42.702;23.314;2023-03-25T04:33:16;25.25;;;15.32;;
20910;SDS011;10615;42.702;23.314;2023-03-25T04:34:19;30.30;;;16.02;;
20910;SDS011;10615;42.702;23.314;2023-03-25T04:35:20;25.42;;;15.00;;
20910;SDS011;10615;42.702;23.314;2023-03-25T04:36:22;19.45;;;14.48;;
20910;SDS011;10615;42.702;23.314;2023-03-25T04:37:23;21.48;;;14.68;;
20910;SDS011;10615;42.702;23.314;2023-03-25T04:38:25;22.08;;;14.90;;
20910;SDS011;10615;42.702;23.314;2023-03-25T04:39:26;25.63;;;15.40;;
20910;SDS011;10615;42.702;23.314;2023-03-25T04:40:28;26.17;;;14.60;;
20910;SDS011;10615;42.702;23.314;2023-03-25T04:41:29;24.33;;;14.93;;
20910;SDS011;10615;42.702;23.314;2023-03-25T04:42:31;28.40;;;14.68;;
20910;SDS011;10615;42.702;23.314;2023-03-25T04:43:36;20.25;;;14.45;;
20910;SDS011;10615;42.702;23.314;2023-03-25T04:44:38;22.73;;;15.48;;
20910;SDS011;10615;42.702;23.314;2023-03-25T04:45:38;22.40;;;14.40;;
20910;SDS011;10615;42.702;23.314;2023-03-25T04:46:41;21.55;;;14.55;;
20910;SDS011;10615;42.702;23.314;2023-03-25T04:47:46;28.85;;;14.77;;
20910;SDS011;10615;42.702;23.314;2023-03-25T04:48:48;24.58;;;14.02;;
20910;SDS011;10615;42.702;23.314;2023-03-25T04:49:48;23.70;;;15.18;;
20910;SDS011;10615;42.702;23.314;2023-03-25T04:50:49;30.00;;;15.90;;
20910;SDS011;10615;42.702;23.314;2023-03-25T04:51:51;23.70;;;15.07;;
20910;SDS011;10615;42.702;23.314;2023-03-25T04:52:53;26.25;;;15.43;;
20910;SDS011;10615;42.702;23.314;2023-03-25T04:53:56;25.90;;;14.82;;
20910;SDS011;10615;42.702;23.314;2023-03-25T04:54:57;22.38;;;14.75;;
20910;SDS011;10615;42.702;23.314;2023-03-25T04:55:58;23.80;;;15.02;;
20910;SDS011;10615;42.702;23.314;2023-03-25T04:56:59;24.83;;;14.30;;
20910;SDS011;10615;42.702;23.314;2023-03-25T04:58:00;25.35;;;15.30;;
20910;SDS011;10615;42.702;23.314;2023-03-25T04:59:01;24.95;;;15.70;;
20910;SDS011;10615;42.702;23.314;2023-03-25T05:00:02;19.50;;;14.07;;
20910;SDS011;10615;42.702;23.314;2023-03-25T05:01:05;28.27;;;15.27;;
20910;SDS011;10615;42.702;23.314;2023-03-25T05:02:10;20.95;;;13.82;;
20910;SDS011;10615;42.702;23.314;2023-03-25T05:03:12;23.50;;;14.23;;
20910;SDS011;10615;42.702;23.314;2023-03-25T05:04:15;22.27;;;14.57;;
20910;SDS011;10615;42.702;23.314;2023-03-25T05:05:17;22.75;;;14.85;;
20910;SDS011;10615;42.702;23.314;2023-03-25T05:06:20;22.15;;;12.57;;
20910;SDS011;10615;42.702;23.314;2023-03-25T05:07:21;20.95;;;13.30;;
20910;SDS011;10615;42.702;23.314;2023-03-25T05:08:22;22.60;;;13.05;;
20910;SDS011;10615;42.702;23.314;2023-03-25T05:09:22;18.60;;;12.50;;
20910;SDS011;10615;42.702;23.314;2023-03-25T05:10:24;19.80;;;12.20;;
20910;SDS011;10615;42.702;23.314;2023-03-25T05:11:28;20.30;;;12.75;;
20910;SDS011;10615;42.702;23.314;2023-03-25T05:12:30;20.40;;;12.13;;
20910;SDS011;10615;42.702;23.314;2023-03-25T05:13:30;23.23;;;12.75;;
20910;SDS011;10615;42.702;23.314;2023-03-25T05:14:31;21.25;;;12.90;;
20910;SDS011;10615;42.702;23.314;2023-03-25T05:15:32;20.65;;;13.23;;
20910;SDS011;10615;42.702;23.314;2023-03-25T05:16:38;23.83;;;13.82;;
20910;SDS011;10615;42.702;23.314;2023-03-25T05:17:39;24.33;;;13.35;;
20910;SDS011;10615;42.702;23.314;2023-03-25T05:18:40;20.92;;;13.38;;
20910;SDS011;10615;42.702;23.314;2023-03-25T05:19:41;21.70;;;13.57;;
20910;SDS011;10615;42.702;23.314;2023-03-25T05:20:44;25.73;;;12.65;;
20910;SDS011;10615;42.702;23.314;2023-03-25T05:21:45;21.17;;;11.82;;
20910;SDS011;10615;42.702;23.314;2023-03-25T05:22:47;19.90;;;13.02;;
20910;SDS011;10615;42.702;23.314;2023-03-25T05:23:48;20.70;;;13.65;;
20910;SDS011;10615;42.702;23.314;2023-03-25T05:24:48;20.13;;;12.85;;
20910;SDS011;10615;42.702;23.314;2023-03-25T05:25:52;20.45;;;13.55;;
20910;SDS011;10615;42.702;23.314;2023-03-25T05:26:52;24.40;;;13.77;;
20910;SDS011;10615;42.702;23.314;2023-03-25T05:27:53;22.00;;;13.65;;
20910;SDS011;10615;42.702;23.314;2023-03-25T05:28:54;20.52;;;13.57;;
20910;SDS011;10615;42.702;23.314;2023-03-25T05:29:55;21.88;;;14.38;;
20910;SDS011;10615;42.702;23.314;2023-03-25T05:30:59;24.27;;;14.80;;
20910;SDS011;10615;42.702;23.314;2023-03-25T05:31:59;23.67;;;15.07;;
20910;SDS011;10615;42.702;23.314;2023-03-25T05:33:00;20.98;;;15.98;;
20910;SDS011;10615;42.702;23.314;2023-03-25T05:34:00;25.05;;;16.85;;
20910;SDS011;10615;42.702;23.314;2023-03-25T05:35:07;24.52;;;16.83;;
20910;SDS011;10615;42.702;23.314;2023-03-25T05:36:12;22.90;;;17.05;;
20910;SDS011;10615;42.702;23.314;2023-03-25T05:37:13;26.20;;;17.52;;
20910;SDS011;10615;42.702;23.314;2023-03-25T05:38:13;26.98;;;18.15;;
20910;SDS011;10615;42.702;23.314;2023-03-25T05:39:18;30.08;;;21.00;;
20910;SDS011;10615;42.702;23.314;2023-03-25T05:40:19;33.65;;;20.58;;
20910;SDS011;10615;42.702;23.314;2023-03-25T05:41:20;27.08;;;19.77;;
20910;SDS011;10615;42.702;23.314;2023-03-25T05:42:31;31.15;;;21.15;;
20910;SDS011;10615;42.702;23.314;2023-03-25T05:43:33;31.75;;;21.55;;
20910;SDS011;10615;42.702;23.314;2023-03-25T05:44:34;29.20;;;20.95;;
20910;SDS011;10615;42.702;23.314;2023-03-25T05:45:35;37.60;;;21.30;;
20910;SDS011;10615;42.702;23.314;2023-03-25T05:46:36;29.67;;;20.77;;
20910;SDS011;10615;42.702;23.314;2023-03-25T05:47:36;34.53;;;21.65;;
20910;SDS011;10615;42.702;23.314;2023-03-25T05:48:37;34.13;;;24.10;;
20910;SDS011;10615;42.702;23.314;2023-03-25T05:49:40;35.15;;;21.95;;
20910;SDS011;10615;42.702;23.314;2023-03-25T05:50:40;30.25;;;21.98;;
20910;SDS011;10615;42.702;23.314;2023-03-25T05:51:41;37.53;;;21.73;;
20910;SDS011;10615;42.702;23.314;2023-03-25T05:52:43;35.13;;;21.85;;
20910;SDS011;10615;42.702;23.314;2023-03-25T05:53:48;32.97;;;21.80;;
20910;SDS011;10615;42.702;23.314;2023-03-25T05:54:49;29.50;;;21.13;;
20910;SDS011;10615;42.702;23.314;2023-03-25T05:55:50;28.58;;;21.40;;
20910;SDS011;10615;42.702;23.314;2023-03-25T05:56:51;29.25;;;21.30;;
20910;SDS011;10615;42.702;23.314;2023-03-25T05:57:52;59.42;;;27.80;;
20910;SDS011;10615;42.702;23.314;2023-03-25T05:58:52;41.10;;;22.20;;
20910;SDS011;10615;42.702;23.314;2023-03-25T05:59:53;29.48;;;20.98;;
20910;SDS011;10615;42.702;23.314;2023-03-25T06:00:55;29.67;;;20.73;;
20910;SDS011;10615;42.702;23.314;2023-03-25T06:01:56;35.03;;;20.75;;
20910;SDS011;10615;42.702;23.314;2023-03-25T06:02:56;32.25;;;21.40;;
20910;SDS011;10615;42.702;23.314;2023-03-25T06:03:58;28.33;;;20.42;;
20910;SDS011;10615;42.702;23.314;2023-03-25T06:05:00;32.38;;;22.15;;
20910;SDS011;10615;42.702;23.314;2023-03-25T06:06:01;34.90;;;21.40;;
20910;SDS011;10615;42.702;23.314;2023-03-25T06:07:07;36.70;;;22.25;;
20910;SDS011;10615;42.702;23.314;2023-03-25T06:08:12;30.67;;;21.48;;
20910;SDS011;10615;42.702;23.314;2023-03-25T06:09:14;29.92;;;20.38;;
20910;SDS011;10615;42.702;23.314;2023-03-25T06:10:16;32.55;;;21.45;;
20910;SDS011;10615;42.702;23.314;2023-03-25T06:11:18;35.70;;;20.75;;
20910;SDS011;10615;42.702;23.314;2023-03-25T06:12:20;31.60;;;20.52;;
20910;SDS011;10615;42.702;23.314;2023-03-25T06:13:22;29.00;;;19.83;;
20910;SDS011;10615;42.702;23.314;2023-03-25T06:14:23;34.80;;;20.45;;
20910;SDS011;10615;42.702;23.314;2023-03-25T06:15:24;29.48;;;20.45;;
20910;SDS011;10615;42.702;23.314;2023-03-25T06:16:32;33.33;;;20.08;;
20910;SDS011;10615;42.702;23.314;2023-03-25T06:17:34;28.17;;;20.45;;
20910;SDS011;10615;42.702;23.314;2023-03-25T06:18:38;34.30;;;20.95;;
20910;SDS011;10615;42.702;23.314;2023-03-25T06:19:39;33.33;;;21.10;;
20910;SDS011;10615;42.702;23.314;2023-03-25T06:20:39;33.75;;;20.45;;
20910;SDS011;10615;42.702;23.314;2023-03-25T06:21:40;29.60;;;20.08;;
20910;SDS011;10615;42.702;23.314;2023-03-25T06:22:43;37.78;;;21.00;;
20910;SDS011;10615;42.702;23.314;2023-03-25T06:23:45;33.45;;;20.98;;
20910;SDS011;10615;42.702;23.314;2023-03-25T06:24:49;33.20;;;21.20;;
20910;SDS011;10615;42.702;23.314;2023-03-25T06:25:51;31.73;;;21.98;;
20910;SDS011;10615;42.702;23.314;2023-03-25T06:26:53;35.10;;;21.13;;
20910;SDS011;10615;42.702;23.314;2023-03-25T06:27:53;30.30;;;20.40;;
20910;SDS011;10615;42.702;23.314;2023-03-25T06:28:55;29.52;;;21.33;;
20910;SDS011;10615;42.702;23.314;2023-03-25T06:29:55;30.05;;;21.70;;
20910;SDS011;10615;42.702;23.314;2023-03-25T06:30:57;31.27;;;20.92;;
20910;SDS011;10615;42.702;23.314;2023-03-25T06:31:58;32.47;;;21.27;;
20910;SDS011;10615;42.702;23.314;2023-03-25T06:32:58;33.80;;;21.55;;
20910;SDS011;10615;42.702;23.314;2023-03-25T06:34:02;33.63;;;21.05;;
20910;SDS011;10615;42.702;23.314;2023-03-25T06:35:03;26.40;;;20.60;;
20910;SDS011;10615;42.702;23.314;2023-03-25T06:36:05;33.80;;;20.25;;
20910;SDS011;10615;42.702;23.314;2023-03-25T06:37:07;32.03;;;19.58;;
20910;SDS011;10615;42.702;23.314;2023-03-25T06:38:08;29.63;;;19.33;;
20910;SDS011;10615;42.702;23.314;2023-03-25T06:39:09;28.80;;;17.98;;
20910;SDS011;10615;42.702;23.314;2023-03-25T06:40:10;32.97;;;19.92;;
20910;SDS011;10615;42.702;23.314;2023-03-25T06:41:12;24.52;;;18.48;;
20910;SDS011;10615;42.702;23.314;2023-03-25T06:42:13;23.35;;;18.00;;